createdAt,value
2022-09-27T00:01:55.553Z,6.77
2022-09-27T00:04:21.997Z,10.57
2022-09-27T00:06:48.378Z,9.77
2022-09-27T00:09:14.992Z,6.27
2022-09-27T00:11:44.924Z,4.53
2022-09-27T00:14:12.592Z,5.57
2022-09-27T00:16:40.083Z,8.03
2022-09-27T00:19:16.740Z,6.50
2022-09-27T00:21:44.147Z,6.57
2022-09-27T00:24:14.553Z,9.73
2022-09-27T00:26:40.945Z,6.13
2022-09-27T00:29:07.775Z,5.17
2022-09-27T00:31:34.266Z,5.73
2022-09-27T00:34:02.009Z,8.03
2022-09-27T00:36:28.899Z,6.93
2022-09-27T00:38:55.930Z,6.80
2022-09-27T00:41:24.015Z,7.33
2022-09-27T00:43:58.350Z,4.90
2022-09-27T00:46:39.231Z,8.43
2022-09-27T00:49:14.708Z,6.17
2022-09-27T00:51:42.130Z,6.20
2022-09-27T00:54:10.650Z,6.93
2022-09-27T00:56:37.110Z,7.30
2022-09-27T00:59:13.954Z,8.07
2022-09-27T01:01:40.775Z,5.97
2022-09-27T01:04:08.741Z,9.93
2022-09-27T01:06:35.609Z,7.37
2022-09-27T01:09:02.034Z,6.77
2022-09-27T01:11:35.094Z,6.10
2022-09-27T01:14:07.429Z,7.93
2022-09-27T01:16:49.358Z,5.93
2022-09-27T01:19:27.862Z,6.83
2022-09-27T01:22:02.057Z,5.87
2022-09-27T01:24:44.934Z,5.90
2022-09-27T01:27:29.863Z,4.57
2022-09-27T01:30:11.518Z,8.67
2022-09-27T01:32:56.735Z,5.20
2022-09-27T01:35:35.691Z,6.33
2022-09-27T01:38:02.082Z,5.97
2022-09-27T01:40:44.142Z,5.60
2022-09-27T01:43:14.801Z,5.90
2022-09-27T01:45:48.895Z,4.93
2022-09-27T01:48:25.194Z,5.97
2022-09-27T01:51:17.985Z,4.83
2022-09-27T01:53:48.617Z,4.90
2022-09-27T01:56:18.328Z,5.73
2022-09-27T01:58:50.519Z,7.50
2022-09-27T02:01:18.272Z,11.03
2022-09-27T02:03:46.967Z,6.43
2022-09-27T02:06:21.998Z,5.33
2022-09-27T02:09:04.022Z,4.60
2022-09-27T02:11:30.555Z,5.53
2022-09-27T02:14:00.090Z,5.37
2022-09-27T02:16:36.078Z,6.73
2022-09-27T02:19:11.170Z,5.40
2022-09-27T02:21:42.844Z,5.13
2022-09-27T02:24:13.088Z,7.17
2022-09-27T02:26:44.225Z,4.00
2022-09-27T02:29:17.027Z,5.60
2022-09-27T02:31:43.549Z,5.70
2022-09-27T02:34:18.452Z,5.90
2022-09-27T02:36:44.811Z,4.17
2022-09-27T02:39:11.429Z,6.03
2022-09-27T02:41:38.051Z,4.17
2022-09-27T02:44:07.458Z,5.90
2022-09-27T02:46:45.639Z,4.53
2022-09-27T02:49:21.103Z,6.73
2022-09-27T02:51:56.254Z,4.80
2022-09-27T02:54:30.230Z,5.63
2022-09-27T02:57:10.587Z,4.47
2022-09-27T02:59:48.903Z,6.27
2022-09-27T03:02:15.411Z,4.57
2022-09-27T03:04:41.898Z,7.17
2022-09-27T03:07:08.297Z,9.60
2022-09-27T03:09:45.763Z,7.00
2022-09-27T03:12:12.297Z,5.33
2022-09-27T03:14:38.692Z,5.17
2022-09-27T03:17:05.136Z,5.87
2022-09-27T03:19:31.568Z,4.90
2022-09-27T03:21:57.934Z,6.10
2022-09-27T03:24:24.362Z,6.27
2022-09-27T03:26:50.716Z,5.13
2022-09-27T03:29:17.194Z,5.07
2022-09-27T03:31:43.589Z,6.27
2022-09-27T03:34:09.963Z,10.47
2022-09-27T03:36:36.297Z,23.07
2022-09-27T03:39:02.656Z,22.47
2022-09-27T03:41:29.545Z,8.53
2022-09-27T03:43:59.909Z,8.97
2022-09-27T03:46:26.455Z,5.53
2022-09-27T03:48:53.055Z,7.47
2022-09-27T03:51:19.736Z,6.90
2022-09-27T03:53:46.102Z,7.43
2022-09-27T03:56:12.608Z,6.47
2022-09-27T03:58:39.146Z,5.60
2022-09-27T04:01:05.703Z,12.53
2022-09-27T04:03:32.149Z,9.60
2022-09-27T04:06:00.441Z,10.03
2022-09-27T04:08:26.833Z,8.47
2022-09-27T04:10:53.228Z,10.23
2022-09-27T04:13:19.614Z,6.77
2022-09-27T04:15:49.905Z,9.53
2022-09-27T04:18:18.562Z,11.30
2022-09-27T04:20:44.956Z,11.57
2022-09-27T04:23:11.361Z,9.83
2022-09-27T04:25:39.534Z,9.67
2022-09-27T04:28:06.228Z,9.27
2022-09-27T04:30:32.655Z,7.90
2022-09-27T04:32:59.072Z,8.57
2022-09-27T04:35:44.335Z,8.13
2022-09-27T04:38:10.773Z,10.90
2022-09-27T04:40:37.242Z,12.47
2022-09-27T04:43:04.882Z,9.20
2022-09-27T04:45:31.546Z,8.03
2022-09-27T04:47:58.046Z,7.10
2022-09-27T04:50:24.390Z,9.20
2022-09-27T04:52:52.093Z,8.03
2022-09-27T04:55:19.070Z,8.67
2022-09-27T04:57:45.499Z,8.07
2022-09-27T05:00:12.078Z,10.40
2022-09-27T05:02:38.476Z,9.83
2022-09-27T05:05:06.752Z,11.03
2022-09-27T05:07:34.073Z,9.90
2022-09-27T05:10:00.453Z,10.23
2022-09-27T05:12:26.934Z,10.67
2022-09-27T05:14:53.952Z,9.57
2022-09-27T05:17:21.830Z,8.97
2022-09-27T05:19:48.545Z,8.80
2022-09-27T05:22:15.023Z,8.77
2022-09-27T05:24:41.402Z,9.73
2022-09-27T05:27:08.501Z,8.53
2022-09-27T05:29:38.170Z,10.87
2022-09-27T05:32:04.732Z,13.67
2022-09-27T05:34:32.678Z,10.03
2022-09-27T05:36:59.220Z,11.37
2022-09-27T05:39:25.628Z,10.47
2022-09-27T05:41:52.169Z,10.60
2022-09-27T05:44:18.575Z,16.90
2022-09-27T05:46:46.363Z,14.57
2022-09-27T05:49:12.727Z,16.90
2022-09-27T05:51:39.139Z,15.83
2022-09-27T05:54:05.543Z,18.67
2022-09-27T05:56:31.950Z,20.77
2022-09-27T05:58:58.870Z,18.17
2022-09-27T06:01:26.839Z,18.63
2022-09-27T06:03:53.629Z,17.97
2022-09-27T06:06:20.081Z,19.50
2022-09-27T06:08:46.645Z,19.33
2022-09-27T06:11:13.098Z,22.60
2022-09-27T06:13:40.059Z,24.83
2022-09-27T06:16:07.203Z,23.17
2022-09-27T06:18:34.003Z,27.77
2022-09-27T06:21:00.998Z,28.33
2022-09-27T06:23:27.467Z,27.77
2022-09-27T06:25:54.686Z,30.67
2022-09-27T06:28:22.030Z,23.00
2022-09-27T06:30:49.264Z,19.60
2022-09-27T06:33:16.733Z,22.37
2022-09-27T06:35:45.281Z,21.90
2022-09-27T06:38:12.962Z,19.57
2022-09-27T06:40:39.652Z,23.50
2022-09-27T06:43:08.155Z,20.07
2022-09-27T06:45:35.660Z,16.67
2022-09-27T06:48:02.565Z,19.50
2022-09-27T06:50:29.938Z,17.90
2022-09-27T06:52:56.533Z,14.77
2022-09-27T06:55:22.995Z,11.60
2022-09-27T06:58:08.114Z,11.80
2022-09-27T07:00:34.499Z,12.40
2022-09-27T07:03:03.603Z,9.13
2022-09-27T07:05:30.791Z,21.97
2022-09-27T07:07:57.791Z,8.77
2022-09-27T07:10:25.607Z,8.20
2022-09-27T07:12:52.833Z,7.53
2022-09-27T07:15:21.473Z,8.33
2022-09-27T07:17:48.566Z,8.30
2022-09-27T07:20:15.381Z,11.57
2022-09-27T07:22:45.254Z,5.43
2022-09-27T07:25:12.045Z,6.53
2022-09-27T07:27:41.682Z,6.33
2022-09-27T07:30:09.033Z,5.27
2022-09-27T07:32:36.881Z,2.70
2022-09-27T07:35:03.923Z,6.33
2022-09-27T07:37:32.510Z,4.17
2022-09-27T07:39:59.252Z,6.73
2022-09-27T07:42:25.654Z,3.10
2022-09-27T07:44:52.226Z,1.93
2022-09-27T07:47:19.607Z,1.83
2022-09-27T07:49:45.977Z,4.53
2022-09-27T07:52:13.045Z,2.13
2022-09-27T07:54:39.421Z,4.27
2022-09-27T07:57:05.891Z,3.27
2022-09-27T07:59:32.290Z,4.87
2022-09-27T08:01:58.707Z,2.63
2022-09-27T08:04:25.148Z,6.07
2022-09-27T08:06:51.520Z,3.43
2022-09-27T08:09:17.933Z,3.10
2022-09-27T08:11:46.071Z,3.03
2022-09-27T08:14:14.853Z,3.83
2022-09-27T08:16:41.723Z,2.77
2022-09-27T08:19:08.114Z,4.20
2022-09-27T08:21:35.051Z,4.47
2022-09-27T08:24:01.522Z,6.53
2022-09-27T08:26:28.533Z,4.17
2022-09-27T08:28:54.926Z,8.33
2022-09-27T08:31:21.400Z,6.70
2022-09-27T08:33:51.542Z,3.23
2022-09-27T08:36:18.001Z,3.77
2022-09-27T08:38:44.466Z,5.23
2022-09-27T08:41:23.118Z,5.00
2022-09-27T08:43:57.592Z,3.47
2022-09-27T08:46:42.832Z,4.17
2022-09-27T08:49:14.169Z,3.67
2022-09-27T08:51:42.031Z,3.97
2022-09-27T08:54:14.502Z,7.93
2022-09-27T08:56:41.390Z,2.23
2022-09-27T08:59:16.381Z,5.23
2022-09-27T09:01:43.231Z,4.90
2022-09-27T09:04:10.564Z,3.53
2022-09-27T09:06:42.927Z,5.93
2022-09-27T09:09:12.328Z,2.40
2022-09-27T09:12:16.486Z,4.83
2022-09-27T09:14:51.785Z,3.23
2022-09-27T09:17:36.931Z,5.87
2022-09-27T09:20:22.278Z,4.50
2022-09-27T09:22:56.423Z,4.73
2022-09-27T09:25:22.873Z,3.80
2022-09-27T09:28:03.154Z,3.10
2022-09-27T09:30:52.617Z,3.87
2022-09-27T09:33:18.944Z,4.10
2022-09-27T09:35:48.814Z,2.63
2022-09-27T09:38:27.078Z,2.43
2022-09-27T09:40:53.446Z,3.50
2022-09-27T09:43:29.064Z,3.70
2022-09-27T09:46:00.165Z,3.03
2022-09-27T09:48:37.047Z,2.87
2022-09-27T09:51:07.726Z,3.67
2022-09-27T09:53:43.839Z,3.70
2022-09-27T09:56:15.619Z,2.33
2022-09-27T09:58:49.299Z,4.33
2022-09-27T10:01:18.704Z,3.20
2022-09-27T10:03:45.551Z,3.17
2022-09-27T10:06:12.946Z,1.50
2022-09-27T10:08:39.406Z,3.40
2022-09-27T10:11:06.396Z,1.80
2022-09-27T10:13:34.815Z,3.13
2022-09-27T10:16:04.375Z,3.03
2022-09-27T10:18:31.479Z,3.77
2022-09-27T10:21:00.116Z,3.53
2022-09-27T10:23:26.633Z,2.53
2022-09-27T10:25:57.478Z,4.03
2022-09-27T10:28:33.085Z,4.23
2022-09-27T10:31:00.684Z,3.07
2022-09-27T10:33:27.762Z,2.77
2022-09-27T10:35:54.130Z,2.87
2022-09-27T10:38:29.798Z,1.80
2022-09-27T10:40:58.861Z,2.33
2022-09-27T10:43:32.719Z,2.27
2022-09-27T10:46:09.312Z,1.60
2022-09-27T10:48:36.369Z,4.00
2022-09-27T10:51:04.567Z,3.33
2022-09-27T10:53:31.659Z,1.87
2022-09-27T10:55:58.296Z,6.13
2022-09-27T10:58:32.688Z,10.47
2022-09-27T11:01:12.326Z,1.20
2022-09-27T11:03:46.442Z,2.40
2022-09-27T11:06:40.690Z,2.67
2022-09-27T11:09:24.195Z,1.50
2022-09-27T11:11:50.961Z,2.10
2022-09-27T11:14:17.871Z,3.00
2022-09-27T11:17:02.047Z,1.73
2022-09-27T11:19:34.994Z,1.10
2022-09-27T11:22:13.287Z,2.77
2022-09-27T11:24:47.685Z,1.40
2022-09-27T11:27:33.006Z,22.50
2022-09-27T11:30:09.922Z,14.03
2022-09-27T11:32:54.706Z,2.30
2022-09-27T11:35:21.490Z,1.30
2022-09-27T11:37:55.936Z,2.07
2022-09-27T11:40:25.495Z,1.50
2022-09-27T11:43:04.193Z,1.50
2022-09-27T11:46:14.981Z,1.53
2022-09-27T11:48:35.795Z,1.77
2022-09-27T11:51:02.563Z,1.30
2022-09-27T11:53:47.553Z,2.10
2022-09-27T11:56:32.811Z,2.57
2022-09-27T11:58:59.112Z,5.00
2022-09-27T12:01:44.376Z,1.47
2022-09-27T12:04:29.571Z,1.30
2022-09-27T12:07:03.102Z,1.20
2022-09-27T12:09:35.651Z,2.00
2022-09-27T12:12:11.510Z,1.23
2022-09-27T12:14:44.556Z,1.27
2022-09-27T12:17:12.813Z,1.47
2022-09-27T12:19:43.246Z,1.30
2022-09-27T12:22:14.164Z,1.63
2022-09-27T12:24:40.881Z,1.63
2022-09-27T12:27:09.865Z,3.63
2022-09-27T12:29:41.255Z,2.37
2022-09-27T12:32:26.296Z,1.90
2022-09-27T12:34:52.666Z,3.00
2022-09-27T12:37:25.338Z,0.53
2022-09-27T12:39:51.782Z,1.90
2022-09-27T12:42:21.302Z,1.17
2022-09-27T12:44:51.004Z,1.23
2022-09-27T12:47:21.027Z,1.63
2022-09-27T12:50:01.048Z,0.93
2022-09-27T12:52:30.934Z,3.10
2022-09-27T12:55:17.376Z,1.93
2022-09-27T12:58:02.343Z,2.13
2022-09-27T13:00:56.131Z,1.60
2022-09-27T13:03:43.456Z,1.70
2022-09-27T13:06:13.378Z,2.17
2022-09-27T13:08:54.030Z,1.70
2022-09-27T13:11:21.998Z,0.47
2022-09-27T13:13:48.390Z,1.57
2022-09-27T13:16:14.964Z,0.80
2022-09-27T13:19:01.373Z,1.93
2022-09-27T13:21:46.349Z,4.13
2022-09-27T13:24:30.999Z,1.53
2022-09-27T13:27:01.050Z,1.33
2022-09-27T13:29:29.039Z,0.93
2022-09-27T13:31:55.355Z,0.97
2022-09-27T13:34:40.813Z,0.80
2022-09-27T13:37:22.387Z,1.90
2022-09-27T13:39:48.802Z,1.07
2022-09-27T13:42:20.292Z,2.73
2022-09-27T13:44:49.657Z,2.87
2022-09-27T13:47:38.179Z,4.70
2022-09-27T13:50:16.660Z,2.27
2022-09-27T13:52:44.949Z,2.90
2022-09-27T13:55:34.628Z,0.80
2022-09-27T13:58:11.318Z,1.40
2022-09-27T14:00:43.012Z,2.30
2022-09-27T14:03:12.463Z,1.37
2022-09-27T14:05:41.509Z,1.17
2022-09-27T14:08:14.199Z,1.63
2022-09-27T14:10:43.371Z,1.70
2022-09-27T14:13:11.135Z,2.17
2022-09-27T14:15:37.980Z,2.63
2022-09-27T14:18:04.432Z,3.43
2022-09-27T14:20:42.010Z,2.27
2022-09-27T14:23:27.078Z,2.57
2022-09-27T14:25:54.088Z,1.67
2022-09-27T14:28:23.864Z,3.70
2022-09-27T14:31:04.921Z,1.83
2022-09-27T14:33:32.301Z,1.80
2022-09-27T14:36:21.697Z,1.43
2022-09-27T14:38:50.118Z,2.93
2022-09-27T14:41:16.499Z,2.97
2022-09-27T14:43:44.592Z,2.00
2022-09-27T14:46:24.420Z,1.90
2022-09-27T14:48:51.030Z,5.63
2022-09-27T14:51:20.630Z,5.73
2022-09-27T14:53:57.132Z,2.17
2022-09-27T14:56:32.423Z,5.23
2022-09-27T14:59:02.612Z,1.77
2022-09-27T15:01:29.942Z,4.10
2022-09-27T15:03:57.485Z,2.17
2022-09-27T15:06:24.945Z,4.20
2022-09-27T15:08:51.437Z,3.77
2022-09-27T15:11:19.337Z,2.10
2022-09-27T15:13:46.548Z,3.00
2022-09-27T15:16:20.051Z,4.43
2022-09-27T15:18:47.653Z,4.27
2022-09-27T15:21:34.404Z,4.83
2022-09-27T15:24:02.736Z,4.03
2022-09-27T15:26:37.628Z,1.80
2022-09-27T15:29:04.474Z,3.00
2022-09-27T15:31:37.300Z,3.10
2022-09-27T15:34:07.220Z,2.33
2022-09-27T15:36:51.299Z,2.33
2022-09-27T15:39:19.084Z,1.77
2022-09-27T15:42:00.890Z,2.50
2022-09-27T15:44:38.187Z,3.67
2022-09-27T15:47:04.924Z,2.57
2022-09-27T15:49:33.503Z,2.80
2022-09-27T15:52:00.919Z,4.17
2022-09-27T15:54:30.260Z,4.47
2022-09-27T15:56:59.464Z,4.30
2022-09-27T15:59:30.018Z,2.40
2022-09-27T16:01:57.631Z,3.30
2022-09-27T16:04:24.714Z,4.60
2022-09-27T16:06:51.061Z,2.33
2022-09-27T16:09:21.144Z,2.63
2022-09-27T16:11:48.289Z,2.10
2022-09-27T16:14:18.347Z,2.50
2022-09-27T16:16:46.651Z,2.40
2022-09-27T16:19:13.339Z,5.23
2022-09-27T16:21:39.700Z,4.23
2022-09-27T16:24:06.432Z,1.83
2022-09-27T16:26:34.050Z,4.57
2022-09-27T16:29:00.375Z,1.77
2022-09-27T16:31:26.815Z,3.70
2022-09-27T16:33:53.227Z,3.70
2022-09-27T16:36:20.679Z,1.93
2022-09-27T16:38:52.267Z,2.80
2022-09-27T16:41:20.029Z,3.60
2022-09-27T16:43:46.861Z,36.57
2022-09-27T16:46:16.065Z,17.03
2022-09-27T16:48:42.911Z,6.67
2022-09-27T16:51:38.635Z,3.33
2022-09-27T16:54:08.202Z,2.40
2022-09-27T16:56:35.279Z,3.83
2022-09-27T16:59:04.167Z,2.87
2022-09-27T17:01:30.971Z,3.03
2022-09-27T17:03:57.775Z,2.57
2022-09-27T17:06:24.533Z,2.23
2022-09-27T17:08:50.909Z,3.30
2022-09-27T17:11:18.444Z,6.23
2022-09-27T17:13:45.279Z,2.63
2022-09-27T17:16:13.435Z,5.90
2022-09-27T17:18:39.909Z,2.70
2022-09-27T17:21:06.873Z,2.00
2022-09-27T17:23:33.955Z,5.00
2022-09-27T17:26:14.931Z,5.47
2022-09-27T17:28:42.719Z,3.53
2022-09-27T17:31:10.757Z,1.90
2022-09-27T17:33:43.345Z,1.83
2022-09-27T17:36:12.144Z,5.03
2022-09-27T17:38:38.823Z,1.97
2022-09-27T17:41:06.322Z,3.03
2022-09-27T17:43:34.222Z,4.27
2022-09-27T17:46:07.993Z,1.80
2022-09-27T17:48:53.879Z,2.97
2022-09-27T17:51:20.959Z,4.63
2022-09-27T17:53:48.012Z,4.27
2022-09-27T17:56:14.811Z,2.60
2022-09-27T17:58:51.491Z,4.70
2022-09-27T18:01:18.677Z,2.93
2022-09-27T18:03:45.964Z,1.83
2022-09-27T18:06:12.985Z,3.53
2022-09-27T18:08:39.842Z,4.80
2022-09-27T18:11:07.473Z,3.60
2022-09-27T18:13:43.331Z,3.73
2022-09-27T18:16:11.184Z,2.37
2022-09-27T18:18:41.062Z,2.20
2022-09-27T18:21:09.843Z,3.30
2022-09-27T18:23:36.190Z,2.40
2022-09-27T18:26:03.423Z,1.53
2022-09-27T18:28:30.067Z,2.53
2022-09-27T18:31:00.962Z,5.30
2022-09-27T18:33:27.442Z,3.27
2022-09-27T18:35:53.822Z,2.00
2022-09-27T18:38:20.259Z,2.47
2022-09-27T18:40:56.280Z,3.53
2022-09-27T18:43:24.764Z,2.63
2022-09-27T18:45:51.226Z,3.83
2022-09-27T18:48:17.684Z,2.60
2022-09-27T18:50:45.156Z,5.60
2022-09-27T18:53:11.613Z,3.00
2022-09-27T18:55:38.754Z,2.33
2022-09-27T18:58:05.213Z,3.20
2022-09-27T19:00:31.589Z,2.97
2022-09-27T19:02:57.963Z,3.17
2022-09-27T19:05:24.298Z,6.07
2022-09-27T19:07:50.760Z,5.17
2022-09-27T19:10:17.141Z,3.03
2022-09-27T19:12:43.561Z,2.63
2022-09-27T19:15:10.562Z,5.17
2022-09-27T19:17:36.951Z,3.77
2022-09-27T19:20:06.418Z,4.03
2022-09-27T19:22:33.209Z,3.37
2022-09-27T19:24:59.581Z,3.23
2022-09-27T19:27:25.925Z,2.73
2022-09-27T19:29:52.857Z,4.43
2022-09-27T19:32:19.198Z,3.73
2022-09-27T19:34:45.505Z,3.37
2022-09-27T19:37:11.894Z,4.47
2022-09-27T19:39:38.240Z,4.17
2022-09-27T19:42:04.677Z,3.50
2022-09-27T19:44:31.060Z,6.00
2022-09-27T19:46:57.450Z,5.03
2022-09-27T19:49:25.294Z,6.77
2022-09-27T19:51:52.126Z,4.10
2022-09-27T19:54:18.499Z,5.30
2022-09-27T19:56:44.845Z,5.40
2022-09-27T19:59:11.386Z,6.47
2022-09-27T20:01:37.871Z,12.73
2022-09-27T20:04:04.269Z,4.93
2022-09-27T20:06:32.463Z,4.13
2022-09-27T20:08:58.809Z,6.13
2022-09-27T20:11:26.940Z,3.60
2022-09-27T20:13:53.523Z,8.40
2022-09-27T20:16:20.958Z,5.07
2022-09-27T20:18:48.561Z,4.57
2022-09-27T20:21:15.926Z,5.97
2022-09-27T20:23:42.473Z,5.40
2022-09-27T20:26:10.653Z,4.03
2022-09-27T20:28:40.951Z,5.03
2022-09-27T20:31:07.763Z,4.63
2022-09-27T20:33:52.340Z,4.77
2022-09-27T20:36:20.396Z,4.30
2022-09-27T20:38:47.882Z,4.27
2022-09-27T20:41:16.455Z,5.00
2022-09-27T20:43:42.851Z,6.80
2022-09-27T20:46:13.802Z,5.97
2022-09-27T20:48:40.296Z,6.90
2022-09-27T20:51:07.343Z,7.00
2022-09-27T20:53:34.133Z,5.80
2022-09-27T20:56:02.828Z,6.00
2022-09-27T20:58:29.763Z,7.77
2022-09-27T21:00:56.238Z,4.60
2022-09-27T21:03:22.691Z,6.43
2022-09-27T21:05:55.829Z,7.00
2022-09-27T21:08:22.791Z,4.57
2022-09-27T21:10:52.706Z,5.60
2022-09-27T21:13:19.530Z,5.77
2022-09-27T21:15:46.102Z,6.47
2022-09-27T21:18:12.857Z,7.07
2022-09-27T21:20:39.209Z,6.57
2022-09-27T21:23:05.769Z,7.30
2022-09-27T21:25:32.152Z,9.47
2022-09-27T21:27:58.581Z,8.33
2022-09-27T21:30:25.326Z,8.10
2022-09-27T21:32:55.105Z,7.43
2022-09-27T21:35:22.047Z,5.90
2022-09-27T21:37:48.563Z,7.40
2022-09-27T21:40:15.367Z,6.60
2022-09-27T21:42:41.870Z,8.17
2022-09-27T21:45:08.610Z,5.90
2022-09-27T21:47:34.943Z,6.30
2022-09-27T21:50:01.296Z,7.13
2022-09-27T21:52:27.957Z,8.60
2022-09-27T21:54:54.278Z,9.27
2022-09-27T21:57:20.625Z,8.87
2022-09-27T21:59:47.016Z,7.27
2022-09-27T22:02:13.599Z,7.67
2022-09-27T22:04:39.969Z,7.73
2022-09-27T22:07:06.311Z,6.70
2022-09-27T22:09:32.660Z,5.73
2022-09-27T22:11:59.050Z,6.40
2022-09-27T22:14:25.472Z,12.80
2022-09-27T22:16:51.977Z,7.67
2022-09-27T22:19:19.086Z,6.43
2022-09-27T22:21:45.661Z,6.40
2022-09-27T22:24:14.019Z,8.17
2022-09-27T22:26:41.225Z,9.13
2022-09-27T22:29:08.082Z,6.67
2022-09-27T22:31:34.789Z,6.27
2022-09-27T22:34:02.448Z,7.17
2022-09-27T22:36:29.563Z,6.77
2022-09-27T22:38:55.958Z,6.30
2022-09-27T22:41:22.719Z,7.77
2022-09-27T22:43:49.132Z,5.80
2022-09-27T22:46:15.565Z,7.77
2022-09-27T22:48:42.398Z,5.70
2022-09-27T22:51:08.897Z,6.60
2022-09-27T22:53:35.730Z,6.07
2022-09-27T22:56:07.090Z,4.23
2022-09-27T22:58:34.276Z,5.13
2022-09-27T23:01:06.973Z,4.50
2022-09-27T23:03:33.506Z,8.97
2022-09-27T23:06:03.775Z,7.07
2022-09-27T23:08:32.402Z,6.27
2022-09-27T23:11:03.074Z,5.60
2022-09-27T23:13:33.375Z,5.60
2022-09-27T23:16:00.535Z,5.63
2022-09-27T23:18:26.951Z,7.80
2022-09-27T23:20:53.306Z,5.73
2022-09-27T23:23:19.650Z,7.17
2022-09-27T23:25:45.991Z,5.70
2022-09-27T23:28:13.013Z,6.40
2022-09-27T23:30:39.365Z,6.47
2022-09-27T23:33:05.748Z,9.10
2022-09-27T23:35:33.845Z,7.90
2022-09-27T23:38:01.383Z,7.23
2022-09-27T23:40:27.799Z,11.33
2022-09-27T23:42:54.320Z,9.10
2022-09-27T23:45:20.678Z,8.17
2022-09-27T23:47:47.040Z,9.40
2022-09-27T23:50:13.424Z,7.63
2022-09-27T23:52:39.842Z,7.90
2022-09-27T23:55:06.561Z,8.73
2022-09-27T23:57:32.880Z,7.63
2022-09-27T23:59:59.226Z,8.10
